Terminal Aerodrome Forecast
Issued by NWS Grand Forks, ND

Home | Current Version | Previous Version | Text Only | Print | Product List | Glossary On
Versions: 1 2 3 4 5 6 7 8 9 10 11 12 13 14 15 16 17 18 19 20 21 22
614
FTUS43 KFGF 231722
TAFGFK
TAF
KGFK 231722Z 2318/2418 02017KT P6SM BKN030
     FM232300 04014KT P6SM BKN050
     FM240100 04006KT P6SM SCT050
     FM240300 02005KT P6SM SKC
     FM241500 16009KT P6SM FEW250=

USA.gov is the U.S. government's official web portal to all federal, state and local government web resources and services.